Hustler II — CZ3052 — position and weather

sailwx.info

Track history (hours):
 
Tides and Currents Weather Stations Pressure Air Temp Water Temp Dewpoint Dewpoint Depression Visibility Wind Speed Wind Dir Waves Ship Positions

Hustler II

Last reported at 2018-Jun-17 16:19 UTC. Time now 2018-Jun-18 03:45 UTC.
Position N 49°16' W 123°23'.

Length 15 m; draft 3.5 m.

Type: Towing. MMSI: 316005607.

Date/timePositionNaut miles runAvg speedWind from/ knotsBaromVisibWave heightAir tempDewpointWater temp
2018-Jun-17 16:19N 49°16' W 123°23'3 9.5
2018-Jun-17 15:58N 49°18' W 123°19'5 9.6
2018-Jun-17 15:30N 49°19' W 123°12'4 8.5
2018-Jun-17 15:00N 49°18' W 123°06'1 1.1
2018-Jun-17 14:30N 49°17' W 123°06'0 0.6
2018-Jun-17 14:00N 49°18' W 123°06'0 0.6
2018-Jun-17 13:30N 49°18' W 123°05'1 1.4
2018-Jun-17 13:00N 49°18' W 123°06'2 4.6
2018-Jun-17 12:30N 49°19' W 123°10'2 4.2
2018-Jun-17 12:00N 49°19' W 123°13'2 3.5
2018-Jun-17 11:30N 49°18' W 123°15'2 4.3
2018-Jun-17 10:58N 49°18' W 123°19'2 4.2
2018-Jun-17 10:29N 49°18' W 123°22'2 3.7
2018-Jun-17 09:59N 49°18' W 123°25'24 2.3
2018-Jun-16 23:30N 48°58' W 123°46'0 0.2
2018-Jun-16 22:07N 48°58' W 123°46'0 0.0
2018-Jun-16 13:09N 48°59' W 123°46'0 1.5
2018-Jun-16 13:00N 48°59' W 123°46'1 1.3
2018-Jun-16 12:26N 48°59' W 123°45'3 0.1
2018-Jun-15 11:12N 48°57' W 123°41'2 8.8
2018-Jun-15 11:00N 48°56' W 123°40'4 6.0
2018-Jun-15 10:25N 48°53' W 123°39'0 0.5
2018-Jun-15 09:59N 48°52' W 123°38'0 0.3
2018-Jun-15 09:30N 48°53' W 123°39'1 2.7
2018-Jun-15 09:00N 48°54' W 123°38'7 3.6
2018-Jun-15 06:57N 48°59' W 123°46'2 2.7
2018-Jun-15 06:16N 48°57' W 123°44'1 2.5
2018-Jun-15 05:45N 48°57' W 123°43'1 2.4
2018-Jun-15 05:29N 48°56' W 123°42'0 0.6
2018-Jun-15 05:00N 48°56' W 123°43'0 0.4
2018-Jun-15 04:30N 48°56' W 123°43'1 0.6
2018-Jun-15 03:41N 48°56' W 123°42'0 1.9
2018-Jun-15 03:30N 48°56' W 123°43'0 0.0
2018-Jun-15 03:00N 48°56' W 123°43'0 0.7
2018-Jun-15 02:30N 48°56' W 123°42'2 4.0
2018-Jun-15 02:00N 48°55' W 123°40'2 4.1
2018-Jun-15 01:30N 48°53' W 123°37'1 2.0
2018-Jun-15 01:00N 48°52' W 123°38'0 0.6
2018-Jun-15 00:29N 48°53' W 123°39'0 0.2
2018-Jun-14 23:57N 48°53' W 123°38'0 0.4
2018-Jun-14 23:30N 48°52' W 123°38'0 0.8
2018-Jun-14 23:00N 48°52' W 123°38'2 4.0
2018-Jun-14 22:30N 48°51' W 123°35'2 4.1
2018-Jun-14 22:00N 48°49' W 123°34'2 4.5
2018-Jun-14 21:30N 48°47' W 123°33'3 5.1
2018-Jun-14 21:00N 48°44' W 123°34'2 3.6
2018-Jun-14 20:30N 48°45' W 123°37'0 1.0
2018-Jun-14 20:00N 48°45' W 123°37'0 0.4
2018-Jun-14 19:30N 48°45' W 123°37'2 4.0
2018-Jun-14 19:00N 48°46' W 123°34'4 8.1
2018-Jun-14 18:30N 48°50' W 123°35'3 6.4
2018-Jun-14 17:59N 48°52' W 123°38'0 0.2
2018-Jun-14 17:28N 48°52' W 123°38'1 1.7
2018-Jun-14 16:59N 48°52' W 123°37'1 1.6
2018-Jun-14 16:30N 48°52' W 123°36'5 8.6
2018-Jun-14 15:57N 48°48' W 123°33'3 7.4
2018-Jun-14 15:30N 48°45' W 123°35'2 3.4
2018-Jun-14 15:00N 48°45' W 123°37'0 0.1
2018-Jun-14 14:30N 48°45' W 123°37'1 1.1
2018-Jun-14 14:00N 48°45' W 123°36'1 1.2
2018-Jun-14 13:30N 48°45' W 123°36'1 1.2
2018-Jun-14 13:00N 48°44' W 123°35'1 1.1
2018-Jun-14 12:30N 48°44' W 123°34'1 1.6
2018-Jun-14 12:00N 48°45' W 123°34'1 1.5
2018-Jun-14 11:30N 48°46' W 123°34'1 1.2
2018-Jun-14 11:00N 48°47' W 123°34'1 1.2
2018-Jun-14 10:30N 48°47' W 123°33'1 1.6
2018-Jun-14 10:00N 48°48' W 123°33'1 1.1
2018-Jun-14 09:30N 48°48' W 123°33'0 0.3
2018-Jun-14 09:00N 48°49' W 123°33'0 0.6
2018-Jun-14 08:30N 48°48' W 123°34'0 0.7
2018-Jun-14 08:00N 48°49' W 123°34'0 0.9
2018-Jun-14 07:30N 48°49' W 123°35'0 0.7
2018-Jun-14 07:00N 48°49' W 123°35'0 0.9
2018-Jun-14 06:30N 48°50' W 123°35'0 0.9
2018-Jun-14 06:00N 48°50' W 123°35'1 1.2
2018-Jun-14 05:30N 48°51' W 123°35'1 1.2
2018-Jun-14 04:56N 48°52' W 123°35'1 1.3
2018-Jun-14 04:30N 48°52' W 123°35'1 1.4
2018-Jun-14 04:00N 48°53' W 123°36'1 1.7
2018-Jun-14 03:30N 48°53' W 123°37'1 1.6
2018-Jun-14 03:00N 48°54' W 123°38'1 1.5
2018-Jun-14 02:30N 48°54' W 123°38'1 1.5
2018-Jun-14 02:00N 48°55' W 123°39'1 1.6
2018-Jun-14 01:30N 48°55' W 123°40'5 0.1
2018-Jun-12 09:16N 48°60' W 123°43'3 9.5
2018-Jun-12 08:59N 48°57' W 123°43'  
Track history (hours):
 
Tides and Currents Weather Stations Pressure Air Temp Water Temp Dewpoint Dewpoint Depression Visibility Wind Speed Wind Dir Waves Ship Positions

Hustler II

Last reported at 2018-Jun-17 16:19 UTC. Time now 2018-Jun-18 03:45 UTC.
Position N 49°16' W 123°23'.

Length 15 m; draft 3.5 m.

Type: Towing. MMSI: 316005607.

Date/timePositionNaut miles runAvg speedWind from/ knotsBaromVisibWave heightAir tempDewpointWater temp
2018-Jun-17 16:19N 49°16' W 123°23'3 9.5
2018-Jun-17 15:58N 49°18' W 123°19'5 9.6
2018-Jun-17 15:30N 49°19' W 123°12'4 8.5
2018-Jun-17 15:00N 49°18' W 123°06'1 1.1
2018-Jun-17 14:30N 49°17' W 123°06'0 0.6
2018-Jun-17 14:00N 49°18' W 123°06'0 0.6
2018-Jun-17 13:30N 49°18' W 123°05'1 1.4
2018-Jun-17 13:00N 49°18' W 123°06'2 4.6
2018-Jun-17 12:30N 49°19' W 123°10'2 4.2
2018-Jun-17 12:00N 49°19' W 123°13'2 3.5
2018-Jun-17 11:30N 49°18' W 123°15'2 4.3
2018-Jun-17 10:58N 49°18' W 123°19'2 4.2
2018-Jun-17 10:29N 49°18' W 123°22'2 3.7
2018-Jun-17 09:59N 49°18' W 123°25'24 2.3
2018-Jun-16 23:30N 48°58' W 123°46'0 0.2
2018-Jun-16 22:07N 48°58' W 123°46'0 0.0
2018-Jun-16 13:09N 48°59' W 123°46'0 1.5
2018-Jun-16 13:00N 48°59' W 123°46'1 1.3
2018-Jun-16 12:26N 48°59' W 123°45'3 0.1
2018-Jun-15 11:12N 48°57' W 123°41'2 8.8
2018-Jun-15 11:00N 48°56' W 123°40'4 6.0
2018-Jun-15 10:25N 48°53' W 123°39'0 0.5
2018-Jun-15 09:59N 48°52' W 123°38'0 0.3
2018-Jun-15 09:30N 48°53' W 123°39'1 2.7
2018-Jun-15 09:00N 48°54' W 123°38'7 3.6
2018-Jun-15 06:57N 48°59' W 123°46'2 2.7
2018-Jun-15 06:16N 48°57' W 123°44'1 2.5
2018-Jun-15 05:45N 48°57' W 123°43'1 2.4
2018-Jun-15 05:29N 48°56' W 123°42'0 0.6
2018-Jun-15 05:00N 48°56' W 123°43'0 0.4
2018-Jun-15 04:30N 48°56' W 123°43'1 0.6
2018-Jun-15 03:41N 48°56' W 123°42'0 1.9
2018-Jun-15 03:30N 48°56' W 123°43'0 0.0
2018-Jun-15 03:00N 48°56' W 123°43'0 0.7
2018-Jun-15 02:30N 48°56' W 123°42'2 4.0
2018-Jun-15 02:00N 48°55' W 123°40'2 4.1
2018-Jun-15 01:30N 48°53' W 123°37'1 2.0
2018-Jun-15 01:00N 48°52' W 123°38'0 0.6
2018-Jun-15 00:29N 48°53' W 123°39'0 0.2
2018-Jun-14 23:57N 48°53' W 123°38'0 0.4
2018-Jun-14 23:30N 48°52' W 123°38'0 0.8
2018-Jun-14 23:00N 48°52' W 123°38'2 4.0
2018-Jun-14 22:30N 48°51' W 123°35'2 4.1
2018-Jun-14 22:00N 48°49' W 123°34'2 4.5
2018-Jun-14 21:30N 48°47' W 123°33'3 5.1
2018-Jun-14 21:00N 48°44' W 123°34'2 3.6
2018-Jun-14 20:30N 48°45' W 123°37'0 1.0
2018-Jun-14 20:00N 48°45' W 123°37'0 0.4
2018-Jun-14 19:30N 48°45' W 123°37'2 4.0
2018-Jun-14 19:00N 48°46' W 123°34'4 8.1
2018-Jun-14 18:30N 48°50' W 123°35'3 6.4
2018-Jun-14 17:59N 48°52' W 123°38'0 0.2
2018-Jun-14 17:28N 48°52' W 123°38'1 1.7
2018-Jun-14 16:59N 48°52' W 123°37'1 1.6
2018-Jun-14 16:30N 48°52' W 123°36'5 8.6
2018-Jun-14 15:57N 48°48' W 123°33'3 7.4
2018-Jun-14 15:30N 48°45' W 123°35'2 3.4
2018-Jun-14 15:00N 48°45' W 123°37'0 0.1
2018-Jun-14 14:30N 48°45' W 123°37'1 1.1
2018-Jun-14 14:00N 48°45' W 123°36'1 1.2
2018-Jun-14 13:30N 48°45' W 123°36'1 1.2
2018-Jun-14 13:00N 48°44' W 123°35'1 1.1
2018-Jun-14 12:30N 48°44' W 123°34'1 1.6
2018-Jun-14 12:00N 48°45' W 123°34'1 1.5
2018-Jun-14 11:30N 48°46' W 123°34'1 1.2
2018-Jun-14 11:00N 48°47' W 123°34'1 1.2
2018-Jun-14 10:30N 48°47' W 123°33'1 1.6
2018-Jun-14 10:00N 48°48' W 123°33'1 1.1
2018-Jun-14 09:30N 48°48' W 123°33'0 0.3
2018-Jun-14 09:00N 48°49' W 123°33'0 0.6
2018-Jun-14 08:30N 48°48' W 123°34'0 0.7
2018-Jun-14 08:00N 48°49' W 123°34'0 0.9
2018-Jun-14 07:30N 48°49' W 123°35'0 0.7
2018-Jun-14 07:00N 48°49' W 123°35'0 0.9
2018-Jun-14 06:30N 48°50' W 123°35'0 0.9
2018-Jun-14 06:00N 48°50' W 123°35'1 1.2
2018-Jun-14 05:30N 48°51' W 123°35'1 1.2
2018-Jun-14 04:56N 48°52' W 123°35'1 1.3
2018-Jun-14 04:30N 48°52' W 123°35'1 1.4
2018-Jun-14 04:00N 48°53' W 123°36'1 1.7
2018-Jun-14 03:30N 48°53' W 123°37'1 1.6
2018-Jun-14 03:00N 48°54' W 123°38'1 1.5
2018-Jun-14 02:30N 48°54' W 123°38'1 1.5
2018-Jun-14 02:00N 48°55' W 123°39'1 1.6
2018-Jun-14 01:30N 48°55' W 123°40'5 0.1
2018-Jun-12 09:16N 48°60' W 123°43'3 9.5
2018-Jun-12 08:59N 48°57' W 123°43'  

Dump ship's entire track history